sensor_id;sensor_type;location;lat;lon;timestamp;pressure;altitude;pressure_sealevel;temperature;humidity
55301;BME280;58302;51.446;-2.000;2022-11-18T00:00:21;98526.31;;;7.02;100.00
55301;BME280;58302;51.446;-2.000;2022-11-18T00:02:48;98525.31;;;6.98;100.00
55301;BME280;58302;51.446;-2.000;2022-11-18T00:05:13;98536.66;;;6.95;100.00
55301;BME280;58302;51.446;-2.000;2022-11-18T00:07:39;98534.78;;;6.96;100.00
55301;BME280;58302;51.446;-2.000;2022-11-18T00:10:05;98542.38;;;6.94;100.00
55301;BME280;58302;51.446;-2.000;2022-11-18T00:12:31;98549.44;;;6.90;100.00
55301;BME280;58302;51.446;-2.000;2022-11-18T00:15:16;98548.75;;;6.79;100.00
55301;BME280;58302;51.446;-2.000;2022-11-18T00:17:42;98544.72;;;6.76;100.00
55301;BME280;58302;51.446;-2.000;2022-11-18T00:20:08;98556.34;;;6.77;100.00
55301;BME280;58302;51.446;-2.000;2022-11-18T00:22:35;98558.53;;;6.70;100.00
55301;BME280;58302;51.446;-2.000;2022-11-18T00:25:01;98564.00;;;6.65;100.00
55301;BME280;58302;51.446;-2.000;2022-11-18T00:27:30;98565.63;;;6.66;100.00
55301;BME280;58302;51.446;-2.000;2022-11-18T00:29:56;98569.19;;;6.61;100.00
55301;BME280;58302;51.446;-2.000;2022-11-18T00:32:22;98578.13;;;6.56;100.00
55301;BME280;58302;51.446;-2.000;2022-11-18T00:34:48;98578.13;;;6.56;100.00
55301;BME280;58302;51.446;-2.000;2022-11-18T00:37:14;98586.19;;;6.62;100.00
55301;BME280;58302;51.446;-2.000;2022-11-18T00:39:40;98586.47;;;6.60;100.00
55301;BME280;58302;51.446;-2.000;2022-11-18T00:42:06;98592.66;;;6.60;100.00
55301;BME280;58302;51.446;-2.000;2022-11-18T00:44:51;98595.75;;;6.49;100.00
55301;BME280;58302;51.446;-2.000;2022-11-18T00:47:17;98602.00;;;6.44;100.00
55301;BME280;58302;51.446;-2.000;2022-11-18T00:49:42;98599.09;;;6.36;100.00
55301;BME280;58302;51.446;-2.000;2022-11-18T00:52:08;98602.63;;;6.31;100.00
55301;BME280;58302;51.446;-2.000;2022-11-18T00:54:34;98608.03;;;6.31;100.00
55301;BME280;58302;51.446;-2.000;2022-11-18T00:57:00;98608.81;;;6.31;100.00
55301;BME280;58302;51.446;-2.000;2022-11-18T00:59:26;98611.25;;;6.33;100.00
55301;BME280;58302;51.446;-2.000;2022-11-18T01:01:52;98614.44;;;6.40;100.00
55301;BME280;58302;51.446;-2.000;2022-11-18T01:04:18;98614.19;;;6.37;100.00
55301;BME280;58302;51.446;-2.000;2022-11-18T01:06:44;98618.72;;;6.41;100.00
55301;BME280;58302;51.446;-2.000;2022-11-18T01:09:10;98631.44;;;6.41;100.00
55301;BME280;58302;51.446;-2.000;2022-11-18T01:11:36;98631.38;;;6.46;100.00
55301;BME280;58302;51.446;-2.000;2022-11-18T01:14:25;98638.16;;;6.43;100.00
55301;BME280;58302;51.446;-2.000;2022-11-18T01:16:55;98647.34;;;6.37;100.00
55301;BME280;58302;51.446;-2.000;2022-11-18T01:19:22;98645.78;;;6.31;100.00
55301;BME280;58302;51.446;-2.000;2022-11-18T01:21:49;98650.97;;;6.27;100.00
55301;BME280;58302;51.446;-2.000;2022-11-18T01:24:15;98649.06;;;6.28;100.00
55301;BME280;58302;51.446;-2.000;2022-11-18T01:26:41;98648.50;;;6.31;100.00
55301;BME280;58302;51.446;-2.000;2022-11-18T01:29:07;98652.81;;;6.32;100.00
55301;BME280;58302;51.446;-2.000;2022-11-18T01:31:33;98658.44;;;6.36;100.00
55301;BME280;58302;51.446;-2.000;2022-11-18T01:33:59;98659.53;;;6.34;100.00
55301;BME280;58302;51.446;-2.000;2022-11-18T01:36:26;98660.84;;;6.37;100.00
55301;BME280;58302;51.446;-2.000;2022-11-18T01:38:53;98656.28;;;6.38;100.00
55301;BME280;58302;51.446;-2.000;2022-11-18T01:41:23;98665.44;;;6.37;100.00
55301;BME280;58302;51.446;-2.000;2022-11-18T01:46:22;98664.75;;;6.21;100.00
55301;BME280;58302;51.446;-2.000;2022-11-18T01:48:57;98675.53;;;6.21;100.00
55301;BME280;58302;51.446;-2.000;2022-11-18T01:51:32;98679.34;;;6.15;100.00
55301;BME280;58302;51.446;-2.000;2022-11-18T01:54:04;98678.06;;;6.07;100.00
55301;BME280;58302;51.446;-2.000;2022-11-18T01:56:37;98684.25;;;6.07;100.00
55301;BME280;58302;51.446;-2.000;2022-11-18T01:59:10;98702.63;;;6.05;100.00
55301;BME280;58302;51.446;-2.000;2022-11-18T02:01:38;98699.63;;;6.07;100.00
55301;BME280;58302;51.446;-2.000;2022-11-18T02:04:05;98703.72;;;6.04;100.00
55301;BME280;58302;51.446;-2.000;2022-11-18T02:06:32;98703.13;;;6.07;100.00
55301;BME280;58302;51.446;-2.000;2022-11-18T02:08:58;98708.00;;;6.05;100.00
55301;BME280;58302;51.446;-2.000;2022-11-18T02:11:24;98714.53;;;5.99;100.00
55301;BME280;58302;51.446;-2.000;2022-11-18T02:14:08;98711.56;;;5.91;100.00
55301;BME280;58302;51.446;-2.000;2022-11-18T02:30:18;98723.97;;;5.92;100.00
55301;BME280;58302;51.446;-2.000;2022-11-18T02:33:10;98725.03;;;5.91;100.00
55301;BME280;58302;51.446;-2.000;2022-11-18T02:35:48;98733.41;;;5.94;100.00
55301;BME280;58302;51.446;-2.000;2022-11-18T02:38:27;98728.03;;;5.94;100.00
55301;BME280;58302;51.446;-2.000;2022-11-18T02:40:58;98738.50;;;5.91;100.00
55301;BME280;58302;51.446;-2.000;2022-11-18T02:43:32;98733.41;;;5.89;100.00
55301;BME280;58302;51.446;-2.000;2022-11-18T02:46:01;98733.97;;;5.81;100.00
55301;BME280;58302;51.446;-2.000;2022-11-18T02:48:34;98746.13;;;5.78;100.00
55301;BME280;58302;51.446;-2.000;2022-11-18T02:51:03;98743.72;;;5.72;100.00
55301;BME280;58302;51.446;-2.000;2022-11-18T02:53:31;98752.88;;;5.71;100.00
55301;BME280;58302;51.446;-2.000;2022-11-18T02:55:59;98752.63;;;5.67;100.00
55301;BME280;58302;51.446;-2.000;2022-11-18T02:58:27;98756.97;;;5.58;100.00
55301;BME280;58302;51.446;-2.000;2022-11-18T03:00:54;98765.84;;;5.64;100.00
55301;BME280;58302;51.446;-2.000;2022-11-18T03:03:32;98769.59;;;5.68;100.00
55301;BME280;58302;51.446;-2.000;2022-11-18T03:09:23;98765.53;;;5.70;100.00
55301;BME280;58302;51.446;-2.000;2022-11-18T03:14:52;98776.63;;;5.64;100.00
55301;BME280;58302;51.446;-2.000;2022-11-18T03:20:24;98772.81;;;5.70;100.00
55301;BME280;58302;51.446;-2.000;2022-11-18T03:23:07;98776.31;;;5.70;100.00
55301;BME280;58302;51.446;-2.000;2022-11-18T03:32:04;98781.22;;;5.63;100.00
55301;BME280;58302;51.446;-2.000;2022-11-18T03:34:18;98788.47;;;5.63;100.00
55301;BME280;58302;51.446;-2.000;2022-11-18T03:36:51;98783.91;;;5.58;100.00
55301;BME280;58302;51.446;-2.000;2022-11-18T03:39:19;98789.31;;;5.53;100.00
55301;BME280;58302;51.446;-2.000;2022-11-18T03:41:52;98794.41;;;5.54;100.00
55301;BME280;58302;51.446;-2.000;2022-11-18T03:44:22;98790.69;;;5.45;100.00
55301;BME280;58302;51.446;-2.000;2022-11-18T03:47:04;98797.16;;;5.49;100.00
55301;BME280;58302;51.446;-2.000;2022-11-18T03:49:49;98801.44;;;5.55;100.00
55301;BME280;58302;51.446;-2.000;2022-11-18T03:52:20;98807.34;;;5.58;100.00
55301;BME280;58302;51.446;-2.000;2022-11-18T03:54:49;98817.03;;;5.69;100.00
55301;BME280;58302;51.446;-2.000;2022-11-18T03:57:21;98818.41;;;5.66;100.00
55301;BME280;58302;51.446;-2.000;2022-11-18T03:59:58;98817.03;;;5.69;100.00
55301;BME280;58302;51.446;-2.000;2022-11-18T04:02:28;98824.03;;;5.70;100.00
55301;BME280;58302;51.446;-2.000;2022-11-18T04:04:56;98821.59;;;5.73;100.00
55301;BME280;58302;51.446;-2.000;2022-11-18T04:07:31;98831.56;;;5.78;100.00
55301;BME280;58302;51.446;-2.000;2022-11-18T04:12:45;98824.59;;;5.72;100.00
55301;BME280;58302;51.446;-2.000;2022-11-18T04:15:13;98831.59;;;5.68;100.00
55301;BME280;58302;51.446;-2.000;2022-11-18T04:17:40;98846.69;;;5.69;100.00
55301;BME280;58302;51.446;-2.000;2022-11-18T04:20:19;98841.81;;;5.71;100.00
55301;BME280;58302;51.446;-2.000;2022-11-18T04:22:45;98842.91;;;5.70;100.00
55301;BME280;58302;51.446;-2.000;2022-11-18T04:25:11;98849.66;;;5.72;100.00
55301;BME280;58302;51.446;-2.000;2022-11-18T04:27:37;98857.44;;;5.74;100.00
55301;BME280;58302;51.446;-2.000;2022-11-18T04:30:04;98852.59;;;5.66;100.00
55301;BME280;58302;51.446;-2.000;2022-11-18T04:32:31;98843.75;;;5.55;100.00
55301;BME280;58302;51.446;-2.000;2022-11-18T04:34:57;98848.59;;;5.48;100.00
55301;BME280;58302;51.446;-2.000;2022-11-18T04:37:23;98855.06;;;5.47;100.00
55301;BME280;58302;51.446;-2.000;2022-11-18T04:39:50;98858.56;;;5.52;100.00
55301;BME280;58302;51.446;-2.000;2022-11-18T04:42:15;98863.41;;;5.50;100.00
55301;BME280;58302;51.446;-2.000;2022-11-18T04:44:41;98864.50;;;5.44;100.00
55301;BME280;58302;51.446;-2.000;2022-11-18T04:47:07;98867.19;;;5.39;100.00
55301;BME280;58302;51.446;-2.000;2022-11-18T04:49:34;98872.03;;;5.37;100.00
55301;BME280;58302;51.446;-2.000;2022-11-18T04:52:00;98880.13;;;5.32;100.00
55301;BME280;58302;51.446;-2.000;2022-11-18T04:54:27;98873.13;;;5.31;100.00
55301;BME280;58302;51.446;-2.000;2022-11-18T04:56:53;98876.34;;;5.23;100.00
55301;BME280;58302;51.446;-2.000;2022-11-18T04:59:22;98879.06;;;5.33;100.00
55301;BME280;58302;51.446;-2.000;2022-11-18T05:01:48;98881.75;;;5.28;100.00
55301;BME280;58302;51.446;-2.000;2022-11-18T05:04:17;98886.59;;;5.31;100.00
55301;BME280;58302;51.446;-2.000;2022-11-18T05:06:44;98894.94;;;5.29;100.00
55301;BME280;58302;51.446;-2.000;2022-11-18T05:09:10;98897.63;;;5.35;100.00
55301;BME280;58302;51.446;-2.000;2022-11-18T05:11:37;98908.13;;;5.41;100.00
55301;BME280;58302;51.446;-2.000;2022-11-18T05:14:23;98905.97;;;5.43;100.00
55301;BME280;58302;51.446;-2.000;2022-11-18T05:16:49;98908.66;;;5.48;100.00
55301;BME280;58302;51.446;-2.000;2022-11-18T05:19:15;98901.38;;;5.54;100.00
55301;BME280;58302;51.446;-2.000;2022-11-18T05:21:41;98913.53;;;5.67;100.00
55301;BME280;58302;51.446;-2.000;2022-11-18T05:24:07;98916.75;;;5.69;100.00
55301;BME280;58302;51.446;-2.000;2022-11-18T05:26:33;98924.31;;;5.72;100.00
55301;BME280;58302;51.446;-2.000;2022-11-18T05:28:59;98921.34;;;5.68;100.00
55301;BME280;58302;51.446;-2.000;2022-11-18T05:31:25;98921.88;;;5.70;100.00
55301;BME280;58302;51.446;-2.000;2022-11-18T05:33:51;98922.41;;;5.72;100.00
55301;BME280;58302;51.446;-2.000;2022-11-18T05:36:18;98929.44;;;5.68;100.00
55301;BME280;58302;51.446;-2.000;2022-11-18T05:38:44;98926.19;;;5.66;100.00
55301;BME280;58302;51.446;-2.000;2022-11-18T05:41:12;98931.56;;;5.71;100.00
55301;BME280;58302;51.446;-2.000;2022-11-18T05:44:01;98935.63;;;5.79;100.00
55301;BME280;58302;51.446;-2.000;2022-11-18T05:46:28;98939.41;;;5.78;100.00
55301;BME280;58302;51.446;-2.000;2022-11-18T05:48:54;98936.94;;;5.71;100.00
55301;BME280;58302;51.446;-2.000;2022-11-18T05:51:22;98948.28;;;5.73;100.00
55301;BME280;58302;51.446;-2.000;2022-11-18T05:53:50;98939.41;;;5.73;100.00
55301;BME280;58302;51.446;-2.000;2022-11-18T05:56:23;98940.72;;;5.65;100.00
55301;BME280;58302;51.446;-2.000;2022-11-18T05:58:49;98938.88;;;5.61;100.00
55301;BME280;58302;51.446;-2.000;2022-11-18T06:01:20;98943.19;;;5.57;100.00
55301;BME280;58302;51.446;-2.000;2022-11-18T06:03:48;98950.19;;;5.63;100.00
55301;BME280;58302;51.446;-2.000;2022-11-18T06:06:16;98940.47;;;5.57;100.00
55301;BME280;58302;51.446;-2.000;2022-11-18T06:08:51;98943.69;;;5.59;100.00
55301;BME280;58302;51.446;-2.000;2022-11-18T06:11:19;98949.38;;;5.57;100.00
55301;BME280;58302;51.446;-2.000;2022-11-18T06:13:53;98959.88;;;5.64;100.00
55301;BME280;58302;51.446;-2.000;2022-11-18T06:16:24;98964.75;;;5.67;100.00
55301;BME280;58302;51.446;-2.000;2022-11-18T06:18:51;98971.19;;;5.76;100.00
55301;BME280;58302;51.446;-2.000;2022-11-18T06:21:17;98974.69;;;5.71;100.00
55301;BME280;58302;51.446;-2.000;2022-11-18T06:23:43;98982.53;;;5.68;100.00
55301;BME280;58302;51.446;-2.000;2022-11-18T06:26:09;98982.22;;;5.59;100.00
55301;BME280;58302;51.446;-2.000;2022-11-18T06:28:38;98987.63;;;5.54;100.00
55301;BME280;58302;51.446;-2.000;2022-11-18T06:31:05;98986.81;;;5.59;100.00
55301;BME280;58302;51.446;-2.000;2022-11-18T06:33:31;98988.19;;;5.56;100.00
55301;BME280;58302;51.446;-2.000;2022-11-18T06:35:57;98988.44;;;5.60;100.00
55301;BME280;58302;51.446;-2.000;2022-11-18T06:38:23;98993.00;;;5.54;100.00
55301;BME280;58302;51.446;-2.000;2022-11-18T06:40:50;98997.88;;;5.62;100.00
55301;BME280;58302;51.446;-2.000;2022-11-18T06:43:16;99010.81;;;5.65;100.00
55301;BME280;58302;51.446;-2.000;2022-11-18T06:46:02;99011.63;;;5.76;100.00
55301;BME280;58302;51.446;-2.000;2022-11-18T06:48:58;99018.63;;;5.82;100.00
55301;BME280;58302;51.446;-2.000;2022-11-18T06:51:25;99024.03;;;5.77;100.00
55301;BME280;58302;51.446;-2.000;2022-11-18T06:53:51;99025.09;;;5.76;100.00
55301;BME280;58302;51.446;-2.000;2022-11-18T06:56:19;99038.56;;;5.71;100.00
55301;BME280;58302;51.446;-2.000;2022-11-18T06:58:46;99048.00;;;5.63;100.00
55301;BME280;58302;51.446;-2.000;2022-11-18T07:01:18;99043.44;;;5.69;100.00
55301;BME280;58302;51.446;-2.000;2022-11-18T07:03:46;99048.31;;;5.72;100.00
55301;BME280;58302;51.446;-2.000;2022-11-18T07:06:15;99048.28;;;5.67;100.00
55301;BME280;58302;51.446;-2.000;2022-11-18T07:08:42;99053.91;;;5.65;100.00
55301;BME280;58302;51.446;-2.000;2022-11-18T07:11:11;99062.84;;;5.61;100.00
55301;BME280;58302;51.446;-2.000;2022-11-18T07:13:37;99063.06;;;5.59;100.00
55301;BME280;58302;51.446;-2.000;2022-11-18T07:16:07;99060.41;;;5.64;100.00
55301;BME280;58302;51.446;-2.000;2022-11-18T07:18:36;99063.09;;;5.64;100.00
55301;BME280;58302;51.446;-2.000;2022-11-18T07:21:14;99073.59;;;5.55;100.00
55301;BME280;58302;51.446;-2.000;2022-11-18T07:23:40;99077.91;;;5.51;100.00
55301;BME280;58302;51.446;-2.000;2022-11-18T07:26:07;99088.44;;;5.63;100.00
55301;BME280;58302;51.446;-2.000;2022-11-18T07:28:33;99100.31;;;5.67;100.00
55301;BME280;58302;51.446;-2.000;2022-11-18T07:31:01;99093.56;;;5.70;100.00
55301;BME280;58302;51.446;-2.000;2022-11-18T07:33:29;99101.38;;;5.71;100.00
55301;BME280;58302;51.446;-2.000;2022-11-18T07:35:55;99111.91;;;5.73;100.00
55301;BME280;58302;51.446;-2.000;2022-11-18T07:38:21;99115.69;;;5.77;100.00
55301;BME280;58302;51.446;-2.000;2022-11-18T07:40:47;99125.63;;;5.76;100.00
55301;BME280;58302;51.446;-2.000;2022-11-18T07:43:13;99129.16;;;5.82;100.00
55301;BME280;58302;51.446;-2.000;2022-11-18T07:45:39;99129.72;;;5.79;100.00
55301;BME280;58302;51.446;-2.000;2022-11-18T07:48:05;99134.56;;;5.77;100.00
55301;BME280;58302;51.446;-2.000;2022-11-18T07:50:30;99145.34;;;5.82;100.00
55301;BME280;58302;51.446;-2.000;2022-11-18T07:52:56;99152.09;;;5.90;100.00
55301;BME280;58302;51.446;-2.000;2022-11-18T07:55:23;99152.91;;;5.90;100.00
55301;BME280;58302;51.446;-2.000;2022-11-18T07:57:49;99155.09;;;5.98;100.00
55301;BME280;58302;51.446;-2.000;2022-11-18T08:00:16;99162.16;;;6.04;100.00
55301;BME280;58302;51.446;-2.000;2022-11-18T08:02:42;99171.34;;;6.19;100.00
55301;BME280;58302;51.446;-2.000;2022-11-18T08:05:08;99167.31;;;6.26;100.00
55301;BME280;58302;51.446;-2.000;2022-11-18T08:07:34;99172.97;;;6.40;100.00
55301;BME280;58302;51.446;-2.000;2022-11-18T08:10:00;99175.13;;;6.58;100.00
55301;BME280;58302;51.446;-2.000;2022-11-18T08:12:28;99176.75;;;6.75;100.00
55301;BME280;58302;51.446;-2.000;2022-11-18T08:14:55;99173.75;;;6.92;100.00
55301;BME280;58302;51.446;-2.000;2022-11-18T08:17:21;99168.03;;;7.13;100.00
55301;BME280;58302;51.446;-2.000;2022-11-18T08:19:47;99177.69;;;7.35;100.00
55301;BME280;58302;51.446;-2.000;2022-11-18T08:22:13;99178.19;;;7.52;100.00
55301;BME280;58302;51.446;-2.000;2022-11-18T08:24:41;99171.88;;;7.72;100.00
55301;BME280;58302;51.446;-2.000;2022-11-18T08:27:07;99173.66;;;7.97;100.00
55301;BME280;58302;51.446;-2.000;2022-11-18T08:29:33;99173.81;;;8.16;100.00
55301;BME280;58302;51.446;-2.000;2022-11-18T08:31:59;99175.84;;;8.34;100.00
55301;BME280;58302;51.446;-2.000;2022-11-18T08:34:25;99173.81;;;8.55;100.00
55301;BME280;58302;51.446;-2.000;2022-11-18T08:36:51;99182.38;;;8.67;100.00
55301;BME280;58302;51.446;-2.000;2022-11-18T08:39:17;99180.09;;;8.85;100.00
55301;BME280;58302;51.446;-2.000;2022-11-18T08:41:43;99185.88;;;9.02;100.00
55301;BME280;58302;51.446;-2.000;2022-11-18T08:44:13;99184.84;;;9.22;100.00
55301;BME280;58302;51.446;-2.000;2022-11-18T08:46:40;99184.81;;;9.51;100.00
55301;BME280;58302;51.446;-2.000;2022-11-18T08:49:06;99185.09;;;9.73;100.00
55301;BME280;58302;51.446;-2.000;2022-11-18T08:51:32;99180.75;;;9.72;100.00
55301;BME280;58302;51.446;-2.000;2022-11-18T08:53:58;99187.72;;;9.79;100.00
55301;BME280;58302;51.446;-2.000;2022-11-18T08:56:24;99182.91;;;9.94;100.00
55301;BME280;58302;51.446;-2.000;2022-11-18T08:58:51;99186.06;;;10.01;100.00
55301;BME280;58302;51.446;-2.000;2022-11-18T09:01:17;99188.19;;;10.04;100.00
55301;BME280;58302;51.446;-2.000;2022-11-18T09:03:43;99193.34;;;10.06;100.00
55301;BME280;58302;51.446;-2.000;2022-11-18T09:06:14;99195.44;;;10.09;100.00
55301;BME280;58302;51.446;-2.000;2022-11-18T09:08:41;99200.06;;;10.09;100.00
55301;BME280;58302;51.446;-2.000;2022-11-18T09:11:15;99198.59;;;10.16;100.00
55301;BME280;58302;51.446;-2.000;2022-11-18T09:13:42;99211.13;;;10.36;100.00
55301;BME280;58302;51.446;-2.000;2022-11-18T09:16:08;99202.81;;;10.46;100.00
55301;BME280;58302;51.446;-2.000;2022-11-18T09:18:34;99209.09;;;10.79;100.00
55301;BME280;58302;51.446;-2.000;2022-11-18T09:21:04;99219.19;;;10.93;100.00
55301;BME280;58302;51.446;-2.000;2022-11-18T09:23:31;99221.94;;;11.06;100.00
55301;BME280;58302;51.446;-2.000;2022-11-18T09:26:09;99227.84;;;11.41;100.00
55301;BME280;58302;51.446;-2.000;2022-11-18T09:28:35;99229.28;;;11.39;100.00
55301;BME280;58302;51.446;-2.000;2022-11-18T09:31:12;99237.22;;;11.35;100.00
55301;BME280;58302;51.446;-2.000;2022-11-18T09:33:38;99236.63;;;11.38;100.00
55301;BME280;58302;51.446;-2.000;2022-11-18T09:36:14;99239.16;;;11.62;100.00
55301;BME280;58302;51.446;-2.000;2022-11-18T09:38:40;99242.47;;;11.59;100.00
55301;BME280;58302;51.446;-2.000;2022-11-18T09:46:46;99262.13;;;11.56;100.00
55301;BME280;58302;51.446;-2.000;2022-11-18T09:49:28;99267.19;;;11.63;100.00
55301;BME280;58302;51.446;-2.000;2022-11-18T09:51:55;99266.88;;;11.64;100.00
55301;BME280;58302;51.446;-2.000;2022-11-18T09:54:29;99276.78;;;12.01;100.00
55301;BME280;58302;51.446;-2.000;2022-11-18T09:56:56;99266.38;;;12.17;100.00
55301;BME280;58302;51.446;-2.000;2022-11-18T09:59:25;99282.09;;;12.34;100.00
55301;BME280;58302;51.446;-2.000;2022-11-18T10:01:55;99287.66;;;12.43;100.00
55301;BME280;58302;51.446;-2.000;2022-11-18T10:04:22;99291.88;;;12.49;100.00
55301;BME280;58302;51.446;-2.000;2022-11-18T10:06:49;99292.72;;;12.58;100.00
55301;BME280;58302;51.446;-2.000;2022-11-18T10:09:34;99290.69;;;12.77;100.00
55301;BME280;58302;51.446;-2.000;2022-11-18T10:12:26;99289.19;;;12.93;100.00
55301;BME280;58302;51.446;-2.000;2022-11-18T10:23:33;99303.16;;;13.14;100.00
55301;BME280;58302;51.446;-2.000;2022-11-18T10:26:00;99306.84;;;13.32;100.00
55301;BME280;58302;51.446;-2.000;2022-11-18T10:28:28;99316.59;;;13.25;100.00
55301;BME280;58302;51.446;-2.000;2022-11-18T10:31:09;99319.31;;;13.25;100.00
55301;BME280;58302;51.446;-2.000;2022-11-18T10:33:36;99320.91;;;12.89;100.00
55301;BME280;58302;51.446;-2.000;2022-11-18T10:38:44;99325.50;;;12.80;100.00
55301;BME280;58302;51.446;-2.000;2022-11-18T10:41:19;99330.69;;;12.68;100.00
55301;BME280;58302;51.446;-2.000;2022-11-18T10:51:39;99337.09;;;13.44;100.00
55301;BME280;58302;51.446;-2.000;2022-11-18T10:56:53;99347.16;;;13.66;100.00
55301;BME280;58302;51.446;-2.000;2022-11-18T10:59:38;99344.91;;;13.37;100.00
55301;BME280;58302;51.446;-2.000;2022-11-18T11:04:47;99347.19;;;12.08;100.00
55301;BME280;58302;51.446;-2.000;2022-11-18T11:10:19;99349.63;;;11.63;100.00
55301;BME280;58302;51.446;-2.000;2022-11-18T11:12:49;99351.50;;;11.49;100.00
55301;BME280;58302;51.446;-2.000;2022-11-18T11:15:40;99362.97;;;11.46;100.00
55301;BME280;58302;51.446;-2.000;2022-11-18T11:20:59;99359.88;;;12.40;100.00
55301;BME280;58302;51.446;-2.000;2022-11-18T11:23:25;99361.72;;;12.58;100.00
55301;BME280;58302;51.446;-2.000;2022-11-18T11:31:05;99375.63;;;11.88;100.00
55301;BME280;58302;51.446;-2.000;2022-11-18T11:39:37;99387.47;;;11.78;100.00
55301;BME280;58302;51.446;-2.000;2022-11-18T11:45:13;99389.53;;;11.54;100.00
55301;BME280;58302;51.446;-2.000;2022-11-18T11:50:27;99389.94;;;11.94;100.00
55301;BME280;58302;51.446;-2.000;2022-11-18T11:53:16;99389.53;;;12.14;100.00
55301;BME280;58302;51.446;-2.000;2022-11-18T12:01:33;99385.03;;;13.01;100.00
55301;BME280;58302;51.446;-2.000;2022-11-18T12:06:35;99389.88;;;13.04;100.00
55301;BME280;58302;51.446;-2.000;2022-11-18T12:09:20;99398.44;;;12.33;100.00
55301;BME280;58302;51.446;-2.000;2022-11-18T12:18:18;99402.34;;;12.00;100.00
55301;BME280;58302;51.446;-2.000;2022-11-18T12:20:53;99404.06;;;11.96;100.00
55301;BME280;58302;51.446;-2.000;2022-11-18T12:23:26;99410.03;;;11.98;100.00
55301;BME280;58302;51.446;-2.000;2022-11-18T12:28:23;99413.34;;;12.08;100.00
55301;BME280;58302;51.446;-2.000;2022-11-18T12:30:50;99406.72;;;12.15;100.00
55301;BME280;58302;51.446;-2.000;2022-11-18T12:33:44;99406.28;;;11.94;100.00
55301;BME280;58302;51.446;-2.000;2022-11-18T12:36:43;99424.25;;;11.76;100.00
55301;BME280;58302;51.446;-2.000;2022-11-18T12:42:01;99445.13;;;11.10;100.00
55301;BME280;58302;51.446;-2.000;2022-11-18T12:44:50;99441.22;;;10.97;100.00
55301;BME280;58302;51.446;-2.000;2022-11-18T12:55:01;99449.91;;;11.18;100.00
55301;BME280;58302;51.446;-2.000;2022-11-18T12:57:33;99454.31;;;11.14;100.00
55301;BME280;58302;51.446;-2.000;2022-11-18T13:02:57;99456.09;;;11.05;100.00
55301;BME280;58302;51.446;-2.000;2022-11-18T13:05:27;99458.50;;;11.25;100.00
55301;BME280;58302;51.446;-2.000;2022-11-18T13:08:03;99457.31;;;12.02;100.00
55301;BME280;58302;51.446;-2.000;2022-11-18T13:13:30;99458.94;;;11.70;100.00
55301;BME280;58302;51.446;-2.000;2022-11-18T13:16:02;99466.75;;;11.39;100.00
55301;BME280;58302;51.446;-2.000;2022-11-18T13:18:49;99477.91;;;11.19;100.00
55301;BME280;58302;51.446;-2.000;2022-11-18T13:21:21;99476.06;;;11.14;100.00
55301;BME280;58302;51.446;-2.000;2022-11-18T13:24:06;99478.63;;;11.05;100.00
55301;BME280;58302;51.446;-2.000;2022-11-18T13:26:33;99487.38;;;11.02;100.00
55301;BME280;58302;51.446;-2.000;2022-11-18T13:31:57;99493.81;;;10.64;100.00
55301;BME280;58302;51.446;-2.000;2022-11-18T13:34:27;99495.88;;;10.48;100.00
55301;BME280;58302;51.446;-2.000;2022-11-18T13:36:55;99491.03;;;10.45;100.00
55301;BME280;58302;51.446;-2.000;2022-11-18T13:39:26;99494.78;;;10.49;100.00
55301;BME280;58302;51.446;-2.000;2022-11-18T13:42:04;99495.66;;;10.44;100.00
55301;BME280;58302;51.446;-2.000;2022-11-18T13:44:35;99501.97;;;10.40;100.00
55301;BME280;58302;51.446;-2.000;2022-11-18T13:50:16;99499.94;;;9.87;100.00
55301;BME280;58302;51.446;-2.000;2022-11-18T13:53:47;99514.09;;;9.84;100.00
55301;BME280;58302;51.446;-2.000;2022-11-18T13:58:42;99522.06;;;10.04;100.00
55301;BME280;58302;51.446;-2.000;2022-11-18T14:01:18;99528.88;;;10.02;100.00
55301;BME280;58302;51.446;-2.000;2022-11-18T14:06:31;99527.69;;;10.13;100.00
55301;BME280;58302;51.446;-2.000;2022-11-18T14:11:44;99535.22;;;10.21;100.00
55301;BME280;58302;51.446;-2.000;2022-11-18T14:14:10;99537.66;;;10.23;100.00
55301;BME280;58302;51.446;-2.000;2022-11-18T14:16:40;99536.88;;;10.22;100.00
55301;BME280;58302;51.446;-2.000;2022-11-18T14:19:25;99538.16;;;10.30;100.00
55301;BME280;58302;51.446;-2.000;2022-11-18T14:21:53;99538.41;;;10.34;100.00
55301;BME280;58302;51.446;-2.000;2022-11-18T14:24:25;99546.75;;;10.42;100.00
55301;BME280;58302;51.446;-2.000;2022-11-18T14:26:52;99547.03;;;10.41;100.00
55301;BME280;58302;51.446;-2.000;2022-11-18T14:29:18;99550.81;;;10.45;100.00
55301;BME280;58302;51.446;-2.000;2022-11-18T14:34:35;99549.56;;;10.61;100.00
55301;BME280;58302;51.446;-2.000;2022-11-18T14:37:01;99549.34;;;10.52;100.00
55301;BME280;58302;51.446;-2.000;2022-11-18T14:39:34;99556.84;;;10.37;100.00
55301;BME280;58302;51.446;-2.000;2022-11-18T14:42:02;99561.03;;;10.24;100.00
55301;BME280;58302;51.446;-2.000;2022-11-18T14:44:31;99561.34;;;10.17;100.00
55301;BME280;58302;51.446;-2.000;2022-11-18T14:47:00;99573.56;;;10.15;100.00
55301;BME280;58302;51.446;-2.000;2022-11-18T14:49:27;99566.78;;;10.17;100.00
55301;BME280;58302;51.446;-2.000;2022-11-18T14:51:56;99576.53;;;10.23;100.00
55301;BME280;58302;51.446;-2.000;2022-11-18T14:54:24;99583.25;;;10.31;100.00
55301;BME280;58302;51.446;-2.000;2022-11-18T14:56:52;99585.16;;;10.31;100.00
55301;BME280;58302;51.446;-2.000;2022-11-18T14:59:19;99596.59;;;10.27;100.00
55301;BME280;58302;51.446;-2.000;2022-11-18T15:01:46;99603.69;;;10.23;100.00
55301;BME280;58302;51.446;-2.000;2022-11-18T15:04:12;99599.88;;;10.24;100.00
55301;BME280;58302;51.446;-2.000;2022-11-18T15:06:39;99601.47;;;10.25;100.00
55301;BME280;58302;51.446;-2.000;2022-11-18T15:09:06;99608.00;;;10.19;100.00
55301;BME280;58302;51.446;-2.000;2022-11-18T15:11:35;99599.97;;;10.04;100.00
55301;BME280;58302;51.446;-2.000;2022-11-18T15:14:01;99617.47;;;9.88;100.00
55301;BME280;58302;51.446;-2.000;2022-11-18T15:16:29;99618.63;;;9.71;100.00
55301;BME280;58302;51.446;-2.000;2022-11-18T15:18:58;99629.00;;;9.64;100.00